首页
METAR-TAF:

METAR-TAF

机场 :

温贝托·德尔加多机场

里斯本, 葡萄牙

纬度: 38-46N, 经度: 009-08W, 海拔: 114米

当前天气观测

该预报发布于37分钟前的23:30 UTC
风速2节,风向多变
温度 21°C
湿度 78%
气压 1017 hPa
能见度10公里或以上
1500米以下无云,无积雨云

METAR: LPPT 192330Z VRB02KT CAVOK 21/17 Q1017

时间: 01:07 (00:07 UTC)

预报

该预报发布于1小时和7分钟前的23:00 UTC
预报有效从20日的 00点(UTC)到 21日的 06点(UTC)
风速3节,风向多变
能见度10公里或以上
少量云层高于4000英尺
几率 30% :
短暂存在
从 20日的 01点(UTC)到 21日的 06点(UTC)
能見度: 5000
散云层高于2000英尺
少量云层高于3500英尺, 积雨云.
雷暴, 雨
成为
从 20日的 09点(UTC)到 20日的 11点(UTC)
风速5节,风向
成为
从 20日的 16点(UTC)到 20日的 18点(UTC)
风速8节,风向北转西北
成为
从 21日的 03点(UTC)到 21日的 05点(UTC)
风速3节,风向多变

TAF: LPPT 192300Z 2000/2106 VRB03KT 9999 FEW040 PROB30 TEMPO 2001/2106 5000 TSRA SCT020 FEW035CB BECMG 2009/2011 09005KT BECMG 2016/2018 33008KT BECMG 2103/2105 VRB03KT

超过4000个机场的气象观测和天气预报(METAR&TAF报告)。

可查询的气象台以黄色和红色小点在地图上表示。

将鼠标移到小点上方,可查看气象台名称。

然后点击查看天气观测和预报。

如需切换地图:点击带黑十字的绿色按钮放大地图;点击带横线的绿色按钮缩小地图;或者点击绿色箭头查看邻近地区的地图。


METAR-TAF: